DRRN/NIM METAR and TAF weather

Enter ICAO airport designator
Station Type Date Time Source
DRRN METAR 2020/06/06 13:00 UTC NOAA

DRRN 061300Z 17004KT 100V270 CAVOK 38/12 Q1012 NOSIG


Station Type Date Time Source
DRRN Decoded METAR 2020/06/06 13:00 UTC NOAA

Niamey-Aero, Niger (DRRN) 13-29N 002-10E 227M
Jun 06, 2020 - 09:00 AM EDT / 2020.06.06 1300 UTC
Wind: from the S (170 degrees) at 5 MPH (4 KT) (direction variable):0
Visibility: greater than 7 mile(s):0
Temperature: 100 F (38 C)
Heat index: 97.9 F (36.6 C):1
Dew Point: 53 F (12 C)
Relative Humidity: 21%
Pressure (altimeter): 29.88 in. Hg (1012 hPa)
ob: DRRN 061300Z 17004KT 100V270 CAVOK 38/12 Q1012 NOSIG
cycle: 13

Station Type Date Time Source
DRRN TAF 2020/06/06 12:22 UTC NOAA

TAF DRRN 061100Z 0612/0718 22010KT 9999 FEW033 PROB30
TEMPO 0614/0620 08025G40KT 1000 BLDU TS SCT040CB PROB40
TEMPO 0622/0704 08020G35KT 1200 BLDU TSRA SCT033 SCT045CB

Example: see airport list